Weather History for KSNL - April, 2013

Change the Weather History Date:

Saturday, April 13, 2013

  Actual Average (KTIK) Record (KTIK)
Temperature  
Mean Temperature 64 °F -  
Max Temperature 78 °F 67 °F 89 °F (2006)
Min Temperature 51 °F 47 °F 28 °F (1997)
Growing Degree Days 14 (Base 50)    
Moisture  
Dew Point 48 °F    
Average Humidity 59    
Maximum Humidity 88    
Minimum Humidity 36    
Precipitation  
Precipitation 0.00 in - - ()
Sea Level Pressure  
Sea Level Pressure 29.91 in    
Wind  
Wind Speed 9 mph (SE)    
Max Wind Speed 22 mph    
Max Gust Speed 29 mph    
Visibility 10 miles    
Events Rain    
Averages and records for this station are not official NWS values.
T = Trace of Precipitation, MM = Missing Value Source: NWS Daily Summary

Daily Weather History Graph

Daily Weather History Graph

Search for Another Location

Airport or City:

Trip Planner

Search our weather history database for the weather conditions in past years. The results will help you decide how hot, cold, wet, or windy it might be!

Date:

Astronomy

Apr. 13, 2013 Rise Set
Actual Time 6:57 AM CDT 7:59 PM CDT
Civil Twilight 6:31 AM CDT 8:25 PM CDT
Nautical Twilight 6:00 AM CDT 8:56 PM CDT
Astronomical Twilight 5:28 AM CDT 9:28 PM CDT
Moon 8:55 AM CDT (4/13) 11:17 PM CDT (4/13)
Length of Visible Light 13h 53m
Length of Day
13h 01m
Waxing Crescent, 10% of the Moon is Illuminated
Apr 13
Waxing Crescent
Apr 18
First Quarter
Apr 25
Full
May 2
Last Quarter
May 9
New

Hourly Weather History & Observations

Time (CDT) Temp. Dew Point Humidity Pressure Visibility Wind Dir Wind Speed Gust Speed Precip Events Conditions
12:15 AM 55.4 °F 42.8 °F 63% 30.00 in 10.0 mi East 4.6 mph - N/A   Clear
12:35 AM 55.4 °F 42.8 °F 63% 30.01 in 10.0 mi ENE 4.6 mph - N/A   Clear
12:55 AM 53.6 °F 42.8 °F 67% 30.02 in 10.0 mi NE 3.5 mph - N/A   Scattered Clouds
1:35 AM 53.6 °F 42.8 °F 67% 30.03 in 10.0 mi NE 4.6 mph - N/A Rain Light Rain
1:55 AM 53.6 °F 41.0 °F 62% 30.02 in 10.0 mi NE 5.8 mph - N/A   Mostly Cloudy
2:15 AM 53.6 °F 42.8 °F 67% 30.04 in 10.0 mi Calm Calm - N/A Rain Light Rain
2:35 AM 51.8 °F 44.6 °F 76% 30.02 in 10.0 mi ENE 5.8 mph - N/A Rain Light Rain
2:55 AM 51.8 °F 44.6 °F 76% 30.02 in 10.0 mi East 4.6 mph - N/A   Overcast
3:15 AM 51.8 °F 46.4 °F 82% 30.03 in 7.0 mi North 10.4 mph - N/A Rain Light Rain
3:35 AM 51.8 °F 46.4 °F 82% 30.02 in 10.0 mi ENE 8.1 mph - N/A   Mostly Cloudy
3:55 AM 51.8 °F 44.6 °F 76% 30.01 in 10.0 mi East 12.7 mph - N/A   Overcast
4:15 AM 51.8 °F 44.6 °F 76% 30.02 in 10.0 mi ENE 8.1 mph - N/A Rain Light Rain
4:35 AM 51.8 °F 46.4 °F 82% 30.02 in 10.0 mi NE 5.8 mph - N/A Rain Light Rain
4:55 AM 51.8 °F 46.4 °F 82% 30.01 in 10.0 mi East 11.5 mph - N/A   Overcast
5:15 AM 51.8 °F 46.4 °F 82% 30.02 in 10.0 mi NNE 3.5 mph - N/A   Overcast
5:35 AM 51.8 °F 48.2 °F 88% 30.02 in 10.0 mi ENE 3.5 mph - N/A   Overcast
5:55 AM 51.8 °F 46.4 °F 82% 30.01 in 10.0 mi NE 3.5 mph - N/A   Overcast
6:15 AM 51.8 °F 46.4 °F 82% 30.02 in 10.0 mi NNE 4.6 mph - N/A   Overcast
6:55 AM 51.8 °F 46.4 °F 82% 30.02 in 10.0 mi ENE 6.9 mph - N/A   Overcast
7:15 AM 51.8 °F 46.4 °F 82% 30.03 in 10.0 mi ENE 4.6 mph - N/A   Overcast
7:35 AM 51.8 °F 46.4 °F 82% 30.05 in 10.0 mi NE 3.5 mph - N/A   Overcast
7:55 AM 51.8 °F 46.4 °F 82% 30.05 in 10.0 mi East 5.8 mph - N/A   Scattered Clouds
8:15 AM 51.8 °F 46.4 °F 82% 30.05 in 10.0 mi East 6.9 mph - N/A   Clear
8:55 AM 55.4 °F 46.4 °F 72% 30.03 in 10.0 mi East 15.0 mph 18.4 mph N/A   Clear
9:15 AM 55.4 °F 46.4 °F 72% 30.03 in 10.0 mi ESE 12.7 mph - N/A   Clear
9:35 AM 57.2 °F 44.6 °F 63% 30.02 in 10.0 mi ESE 17.3 mph 20.7 mph N/A   Clear
9:55 AM 59.0 °F 46.4 °F 63% 30.02 in 10.0 mi ESE 15.0 mph - N/A   Clear
10:15 AM 59.0 °F 46.4 °F 63% 30.01 in 10.0 mi ESE 9.2 mph - N/A   Clear
10:35 AM 60.8 °F 46.4 °F 59% 30.01 in 10.0 mi SE 13.8 mph - N/A   Clear
10:55 AM 60.8 °F 46.4 °F 59% 30.00 in 10.0 mi SE 15.0 mph 20.7 mph N/A   Scattered Clouds
11:15 AM 62.6 °F 46.4 °F 55% 30.00 in 10.0 mi SSE 15.0 mph - N/A   Mostly Cloudy
11:35 AM 64.4 °F 48.2 °F 56% 29.99 in 10.0 mi SSE 11.5 mph 16.1 mph N/A   Scattered Clouds
11:55 AM 66.2 °F 50.0 °F 56% 29.98 in 10.0 mi SSE 15.0 mph - N/A   Clear
12:15 PM 66.2 °F 50.0 °F 56% 29.98 in 10.0 mi SE 9.2 mph - N/A   Scattered Clouds
12:35 PM 68.0 °F 50.0 °F 52% 29.96 in 10.0 mi South 13.8 mph - N/A   Clear
12:55 PM 69.8 °F 51.8 °F 53% 29.94 in 10.0 mi SSE 13.8 mph 18.4 mph N/A   Clear
1:15 PM 68.0 °F 50.0 °F 52% 29.93 in 10.0 mi SSE 12.7 mph - N/A   Clear
1:35 PM 71.6 °F 51.8 °F 50% 29.92 in 10.0 mi South 16.1 mph 21.9 mph N/A   Clear
1:55 PM 73.4 °F 51.8 °F 47% 29.90 in 10.0 mi SSE 12.7 mph 25.3 mph N/A   Clear
2:15 PM 77.0 °F 51.8 °F 41% 29.88 in 10.0 mi South 16.1 mph 27.6 mph N/A   Clear
2:35 PM 77.0 °F 51.8 °F 41% 29.87 in 10.0 mi South 16.1 mph - N/A   Clear
2:55 PM 77.0 °F 50.0 °F 39% 29.86 in 10.0 mi South 20.7 mph 27.6 mph N/A   Clear
3:15 PM 77.0 °F 50.0 °F 39% 29.85 in 10.0 mi South 18.4 mph 26.5 mph N/A   Clear
3:35 PM 77.0 °F 51.8 °F 41% 29.84 in 10.0 mi South 18.4 mph 26.5 mph N/A   Clear
3:55 PM 77.0 °F 51.8 °F 41% 29.84 in 10.0 mi South 16.1 mph 26.5 mph N/A   Clear
4:15 PM 77.0 °F 51.8 °F 41% 29.82 in 10.0 mi South 17.3 mph 23.0 mph N/A   Clear
4:35 PM 78.8 °F 51.8 °F 39% 29.81 in 10.0 mi South 16.1 mph 21.9 mph N/A   Clear
4:55 PM 77.0 °F 50.0 °F 39% 29.80 in 10.0 mi South 21.9 mph 25.3 mph N/A   Clear
5:15 PM 78.8 °F 50.0 °F 36% 29.79 in 10.0 mi South 13.8 mph 23.0 mph N/A   Clear
5:35 PM 77.0 °F 50.0 °F 39% 29.79 in 10.0 mi South 16.1 mph 27.6 mph N/A   Clear
5:55 PM 77.0 °F 50.0 °F 39% 29.78 in 10.0 mi South 19.6 mph 27.6 mph N/A   Clear
6:15 PM 77.0 °F 50.0 °F 39% 29.78 in 10.0 mi SSW 18.4 mph 25.3 mph N/A   Clear
6:35 PM 77.0 °F 48.2 °F 36% 29.77 in 10.0 mi South 18.4 mph 28.8 mph N/A   Clear
6:55 PM 75.2 °F 50.0 °F 41% 29.77 in 10.0 mi South 17.3 mph 25.3 mph N/A   Clear
7:15 PM 73.4 °F 46.4 °F 38% 29.76 in 10.0 mi South 19.6 mph 25.3 mph N/A   Clear
7:35 PM 73.4 °F 46.4 °F 38% 29.76 in 10.0 mi South 17.3 mph 27.6 mph N/A   Clear
7:55 PM 71.6 °F 46.4 °F 41% 29.76 in 10.0 mi South 11.5 mph - N/A   Clear
8:15 PM 71.6 °F 50.0 °F 46% 29.76 in 10.0 mi South 9.2 mph - N/A   Clear
8:35 PM 71.6 °F 51.8 °F 50% 29.76 in 10.0 mi South 10.4 mph - N/A   Clear
8:55 PM 68.0 °F 50.0 °F 52% 29.76 in 10.0 mi South 11.5 mph - N/A   Clear
9:15 PM 68.0 °F 51.8 °F 56% 29.76 in 10.0 mi SSE 10.4 mph - N/A   Clear
9:35 PM 68.0 °F 51.8 °F 56% 29.76 in 10.0 mi South 13.8 mph - N/A   Clear
9:55 PM 68.0 °F 51.8 °F 56% 29.77 in 10.0 mi South 11.5 mph 17.3 mph N/A   Clear
10:15 PM 68.0 °F 50.0 °F 52% 29.77 in 10.0 mi South 11.5 mph 17.3 mph N/A   Clear
10:35 PM 66.2 °F 50.0 °F 56% 29.77 in 10.0 mi South 11.5 mph - N/A   Clear
10:55 PM 66.2 °F 50.0 °F 56% 29.78 in 10.0 mi South 11.5 mph 16.1 mph N/A   Clear
11:15 PM 66.2 °F 48.2 °F 52% 29.77 in 10.0 mi SSE 13.8 mph - N/A   Clear
11:35 PM 66.2 °F 48.2 °F 52% 29.76 in 10.0 mi South 13.8 mph - N/A   Clear
11:55 PM 66.2 °F 48.2 °F 52% 29.76 in 10.0 mi South 16.1 mph 23.0 mph N/A   Clear